Aérodrome :
LOGIN :

S'inscrire | Disclaimer

   EN    FR    IT 

 










Légende :    VFR   VFR Marginal   IFR   IFR Intensif   IFR Très Intensif
Visi : 
Plafond : 
>= 8 km
>= 3000ft
5 à 8 km
1000 à 3000 ft
1500m à 5 km
500 à 1000 ft
800 à 1500m
200 à 500 ft
< 800m
< 200 ft
Symboles :   Orages  Brouillard  Fortes neiges  Fortes précipitations  Vent > 20 kt
SIGMETs :   Divers  Orages  Givrage  Turbulence  Onde Orograph.  Cendres Volcan.







- Altitude de l'aérodrome : 408 ft
- Code IATA : FKB


EDSB - Karlsruhe Baden Baden

DERNIER METAR :
  • 181820Z VRB01KT 0400 R21/0550U FZFG VV/// M00/M00 Q1019

METARs EXPIRÉS :
  • 181750Z 09004KT 0400 R21/0450N FZFG VV/// 00/00 Q1019
  • 181720Z VRB01KT 0400 R21/0500N FG VV/// 01/01 Q1020
  • 181650Z VRB02KT 0300 R21/0375N FG VV/// 01/01 Q1020
  • 181620Z VRB01KT 0300 R21/0300N FG VV/// 01/01 Q1020
  • 181550Z VRB01KT 0300 R21/0350N FG VV/// 01/01 Q1020

TAF AMD TAF EDSB
Valide du 18 à 18h jusqu'au 19 à 18h UTC


181834Z 1818/1918 VRB03KT 0350 FG VV001
TEMPO 1818/1901 0200 FZFG
BECMG 1823/1901 3000 BR BKN003
BECMG 1901/1904 20005KT 7000 FEW003
TEMPO 1908/1914 BKN012
Pas de NOTAMs connus pour ce terrain.



MET'MAP, la Météo Aéronautique d'un coup d'oeil ! - Copyright ORBIFLY Décembre 2007 - Disclaimer

ORBIFLY MET'MAP TEAM :

Programmation & Développement : Alexandra Zaïnal
Conception & Développement : Baudouin d'Aumeries
Co-Programmation & Développement : Marc-Olivier Méhu
Soutien technique & logistique : Manuel Goepfert

Contact : metmap@orbifly.com




SOURCES & CREDITS :

   NOAA